sensor_id;sensor_type;location;lat;lon;timestamp;P1;durP1;ratioP1;P2;durP2;ratioP2
76610;SDS011;65503;48.534;9.062;2023-08-06T00:00:52;12.98;;;7.57;;
76610;SDS011;65503;48.534;9.062;2023-08-06T00:03:18;15.80;;;7.60;;
76610;SDS011;65503;48.534;9.062;2023-08-06T00:05:45;12.40;;;7.35;;
76610;SDS011;65503;48.534;9.062;2023-08-06T00:08:12;13.88;;;8.23;;
76610;SDS011;65503;48.534;9.062;2023-08-06T00:10:39;14.93;;;7.43;;
76610;SDS011;65503;48.534;9.062;2023-08-06T00:13:06;11.13;;;6.95;;
76610;SDS011;65503;48.534;9.062;2023-08-06T00:15:33;10.52;;;6.28;;
76610;SDS011;65503;48.534;9.062;2023-08-06T00:17:59;12.50;;;7.10;;
76610;SDS011;65503;48.534;9.062;2023-08-06T00:20:26;15.05;;;7.80;;
76610;SDS011;65503;48.534;9.062;2023-08-06T00:22:52;15.90;;;7.55;;
76610;SDS011;65503;48.534;9.062;2023-08-06T00:25:19;12.95;;;7.60;;
76610;SDS011;65503;48.534;9.062;2023-08-06T00:27:46;14.82;;;8.77;;
76610;SDS011;65503;48.534;9.062;2023-08-06T00:30:12;16.83;;;7.97;;
76610;SDS011;65503;48.534;9.062;2023-08-06T00:32:38;13.50;;;7.53;;
76610;SDS011;65503;48.534;9.062;2023-08-06T00:35:05;11.35;;;6.80;;
76610;SDS011;65503;48.534;9.062;2023-08-06T00:37:32;10.93;;;6.15;;
76610;SDS011;65503;48.534;9.062;2023-08-06T00:39:59;10.02;;;5.95;;
76610;SDS011;65503;48.534;9.062;2023-08-06T00:42:25;11.88;;;5.93;;
76610;SDS011;65503;48.534;9.062;2023-08-06T00:44:52;11.65;;;6.82;;
76610;SDS011;65503;48.534;9.062;2023-08-06T00:47:18;11.63;;;6.43;;
76610;SDS011;65503;48.534;9.062;2023-08-06T00:49:45;11.40;;;6.70;;
76610;SDS011;65503;48.534;9.062;2023-08-06T00:52:12;10.55;;;6.55;;
76610;SDS011;65503;48.534;9.062;2023-08-06T00:54:40;11.48;;;6.05;;
76610;SDS011;65503;48.534;9.062;2023-08-06T00:57:07;8.95;;;5.65;;
76610;SDS011;65503;48.534;9.062;2023-08-06T00:59:35;7.75;;;4.72;;
76610;SDS011;65503;48.534;9.062;2023-08-06T01:02:02;10.10;;;5.03;;
76610;SDS011;65503;48.534;9.062;2023-08-06T01:04:29;12.18;;;5.32;;
76610;SDS011;65503;48.534;9.062;2023-08-06T01:07:05;8.40;;;4.78;;
76610;SDS011;65503;48.534;9.062;2023-08-06T01:12:48;6.22;;;3.85;;
76610;SDS011;65503;48.534;9.062;2023-08-06T01:15:22;7.45;;;4.05;;
76610;SDS011;65503;48.534;9.062;2023-08-06T01:17:53;8.27;;;3.95;;
76610;SDS011;65503;48.534;9.062;2023-08-06T01:20:20;9.07;;;3.88;;
76610;SDS011;65503;48.534;9.062;2023-08-06T01:23:06;8.38;;;3.60;;
76610;SDS011;65503;48.534;9.062;2023-08-06T01:25:40;7.80;;;3.78;;
76610;SDS011;65503;48.534;9.062;2023-08-06T01:28:17;6.20;;;3.70;;
76610;SDS011;65503;48.534;9.062;2023-08-06T01:30:49;7.13;;;3.67;;
76610;SDS011;65503;48.534;9.062;2023-08-06T01:33:18;7.80;;;3.60;;
76610;SDS011;65503;48.534;9.062;2023-08-06T01:35:49;6.00;;;3.35;;
76610;SDS011;65503;48.534;9.062;2023-08-06T01:38:17;6.53;;;3.65;;
76610;SDS011;65503;48.534;9.062;2023-08-06T01:40:43;8.25;;;4.55;;
76610;SDS011;65503;48.534;9.062;2023-08-06T01:43:10;5.72;;;3.50;;
76610;SDS011;65503;48.534;9.062;2023-08-06T01:45:37;6.28;;;3.50;;
76610;SDS011;65503;48.534;9.062;2023-08-06T01:48:03;6.30;;;3.88;;
76610;SDS011;65503;48.534;9.062;2023-08-06T01:50:30;6.55;;;3.30;;
76610;SDS011;65503;48.534;9.062;2023-08-06T01:52:56;7.53;;;3.95;;
76610;SDS011;65503;48.534;9.062;2023-08-06T01:55:23;6.82;;;3.65;;
76610;SDS011;65503;48.534;9.062;2023-08-06T01:57:49;6.03;;;3.47;;
76610;SDS011;65503;48.534;9.062;2023-08-06T02:00:16;8.27;;;3.40;;
76610;SDS011;65503;48.534;9.062;2023-08-06T02:02:42;6.15;;;3.17;;
76610;SDS011;65503;48.534;9.062;2023-08-06T02:05:09;6.13;;;3.40;;
76610;SDS011;65503;48.534;9.062;2023-08-06T02:07:35;7.05;;;3.40;;
76610;SDS011;65503;48.534;9.062;2023-08-06T02:10:02;6.40;;;3.33;;
76610;SDS011;65503;48.534;9.062;2023-08-06T02:12:29;7.45;;;3.08;;
76610;SDS011;65503;48.534;9.062;2023-08-06T02:14:55;6.63;;;3.50;;
76610;SDS011;65503;48.534;9.062;2023-08-06T02:17:22;7.28;;;3.88;;
76610;SDS011;65503;48.534;9.062;2023-08-06T02:19:49;6.72;;;3.38;;
76610;SDS011;65503;48.534;9.062;2023-08-06T02:22:15;7.55;;;3.50;;
76610;SDS011;65503;48.534;9.062;2023-08-06T02:24:42;6.45;;;3.42;;
76610;SDS011;65503;48.534;9.062;2023-08-06T02:27:08;7.35;;;3.58;;
76610;SDS011;65503;48.534;9.062;2023-08-06T02:29:35;7.30;;;4.00;;
76610;SDS011;65503;48.534;9.062;2023-08-06T02:32:01;8.57;;;3.63;;
76610;SDS011;65503;48.534;9.062;2023-08-06T02:34:28;7.30;;;3.78;;
76610;SDS011;65503;48.534;9.062;2023-08-06T02:36:55;7.00;;;3.88;;
76610;SDS011;65503;48.534;9.062;2023-08-06T02:39:21;6.93;;;3.83;;
76610;SDS011;65503;48.534;9.062;2023-08-06T02:41:48;8.75;;;3.78;;
76610;SDS011;65503;48.534;9.062;2023-08-06T02:44:14;8.63;;;3.53;;
76610;SDS011;65503;48.534;9.062;2023-08-06T02:46:41;10.25;;;3.42;;
76610;SDS011;65503;48.534;9.062;2023-08-06T02:49:07;9.45;;;4.03;;
76610;SDS011;65503;48.534;9.062;2023-08-06T02:51:34;9.15;;;4.60;;
76610;SDS011;65503;48.534;9.062;2023-08-06T02:54:00;8.77;;;4.72;;
76610;SDS011;65503;48.534;9.062;2023-08-06T02:56:27;8.88;;;4.05;;
76610;SDS011;65503;48.534;9.062;2023-08-06T02:58:54;9.63;;;4.07;;
76610;SDS011;65503;48.534;9.062;2023-08-06T03:01:20;8.25;;;4.00;;
76610;SDS011;65503;48.534;9.062;2023-08-06T03:03:47;6.60;;;3.78;;
76610;SDS011;65503;48.534;9.062;2023-08-06T03:06:13;9.77;;;4.30;;
76610;SDS011;65503;48.534;9.062;2023-08-06T03:08:40;7.50;;;4.32;;
76610;SDS011;65503;48.534;9.062;2023-08-06T03:11:06;8.40;;;3.83;;
76610;SDS011;65503;48.534;9.062;2023-08-06T03:13:33;8.13;;;3.95;;
76610;SDS011;65503;48.534;9.062;2023-08-06T03:15:59;7.65;;;3.45;;
76610;SDS011;65503;48.534;9.062;2023-08-06T03:18:26;7.95;;;3.13;;
76610;SDS011;65503;48.534;9.062;2023-08-06T03:20:53;9.52;;;3.60;;
76610;SDS011;65503;48.534;9.062;2023-08-06T03:23:20;6.70;;;3.28;;
76610;SDS011;65503;48.534;9.062;2023-08-06T03:25:47;6.38;;;3.05;;
76610;SDS011;65503;48.534;9.062;2023-08-06T03:28:13;6.80;;;3.10;;
76610;SDS011;65503;48.534;9.062;2023-08-06T03:30:40;5.40;;;2.80;;
76610;SDS011;65503;48.534;9.062;2023-08-06T03:33:07;7.68;;;2.70;;
76610;SDS011;65503;48.534;9.062;2023-08-06T03:35:33;5.85;;;2.38;;
76610;SDS011;65503;48.534;9.062;2023-08-06T03:38:00;5.25;;;2.58;;
76610;SDS011;65503;48.534;9.062;2023-08-06T03:40:26;7.78;;;2.70;;
76610;SDS011;65503;48.534;9.062;2023-08-06T03:42:53;4.82;;;2.45;;
76610;SDS011;65503;48.534;9.062;2023-08-06T03:45:19;6.35;;;2.63;;
76610;SDS011;65503;48.534;9.062;2023-08-06T03:47:46;7.47;;;2.40;;
76610;SDS011;65503;48.534;9.062;2023-08-06T03:50:12;6.93;;;2.67;;
76610;SDS011;65503;48.534;9.062;2023-08-06T03:52:39;7.32;;;2.70;;
76610;SDS011;65503;48.534;9.062;2023-08-06T03:55:06;6.93;;;2.90;;
76610;SDS011;65503;48.534;9.062;2023-08-06T03:57:33;5.00;;;2.60;;
76610;SDS011;65503;48.534;9.062;2023-08-06T03:59:59;5.95;;;2.60;;
76610;SDS011;65503;48.534;9.062;2023-08-06T04:02:26;6.43;;;3.03;;
76610;SDS011;65503;48.534;9.062;2023-08-06T04:04:52;7.75;;;2.70;;
76610;SDS011;65503;48.534;9.062;2023-08-06T04:07:20;5.97;;;2.40;;
76610;SDS011;65503;48.534;9.062;2023-08-06T04:09:53;7.07;;;2.47;;
76610;SDS011;65503;48.534;9.062;2023-08-06T04:12:21;5.90;;;2.10;;
76610;SDS011;65503;48.534;9.062;2023-08-06T04:14:48;4.88;;;1.92;;
76610;SDS011;65503;48.534;9.062;2023-08-06T04:17:16;3.60;;;1.65;;
76610;SDS011;65503;48.534;9.062;2023-08-06T04:19:42;6.13;;;1.60;;
76610;SDS011;65503;48.534;9.062;2023-08-06T04:22:09;3.08;;;1.40;;
76610;SDS011;65503;48.534;9.062;2023-08-06T04:24:35;6.05;;;1.85;;
76610;SDS011;65503;48.534;9.062;2023-08-06T04:27:01;4.75;;;1.60;;
76610;SDS011;65503;48.534;9.062;2023-08-06T04:29:28;4.85;;;1.20;;
76610;SDS011;65503;48.534;9.062;2023-08-06T04:31:55;5.47;;;1.42;;
76610;SDS011;65503;48.534;9.062;2023-08-06T04:34:21;1.90;;;1.08;;
76610;SDS011;65503;48.534;9.062;2023-08-06T04:36:48;4.75;;;1.17;;
76610;SDS011;65503;48.534;9.062;2023-08-06T04:39:15;4.57;;;1.48;;
76610;SDS011;65503;48.534;9.062;2023-08-06T04:41:41;7.80;;;1.70;;
76610;SDS011;65503;48.534;9.062;2023-08-06T04:44:08;2.95;;;1.52;;
76610;SDS011;65503;48.534;9.062;2023-08-06T04:46:34;3.47;;;1.33;;
76610;SDS011;65503;48.534;9.062;2023-08-06T04:49:01;4.53;;;1.40;;
76610;SDS011;65503;48.534;9.062;2023-08-06T04:51:27;5.97;;;1.38;;
76610;SDS011;65503;48.534;9.062;2023-08-06T04:53:54;4.07;;;1.40;;
76610;SDS011;65503;48.534;9.062;2023-08-06T04:56:21;3.47;;;1.42;;
76610;SDS011;65503;48.534;9.062;2023-08-06T04:58:47;5.28;;;1.45;;
76610;SDS011;65503;48.534;9.062;2023-08-06T05:01:14;3.95;;;1.25;;
76610;SDS011;65503;48.534;9.062;2023-08-06T05:03:41;6.47;;;1.65;;
76610;SDS011;65503;48.534;9.062;2023-08-06T05:06:07;2.97;;;1.10;;
76610;SDS011;65503;48.534;9.062;2023-08-06T05:08:34;3.20;;;0.95;;
76610;SDS011;65503;48.534;9.062;2023-08-06T05:11:00;3.15;;;1.15;;
76610;SDS011;65503;48.534;9.062;2023-08-06T05:13:27;3.10;;;1.30;;
76610;SDS011;65503;48.534;9.062;2023-08-06T05:15:54;3.90;;;0.88;;
76610;SDS011;65503;48.534;9.062;2023-08-06T05:18:21;3.30;;;1.33;;
76610;SDS011;65503;48.534;9.062;2023-08-06T05:20:48;1.85;;;0.90;;
76610;SDS011;65503;48.534;9.062;2023-08-06T05:23:14;3.17;;;0.88;;
76610;SDS011;65503;48.534;9.062;2023-08-06T05:25:41;2.83;;;1.15;;
76610;SDS011;65503;48.534;9.062;2023-08-06T05:28:08;1.83;;;0.77;;
76610;SDS011;65503;48.534;9.062;2023-08-06T05:30:38;4.55;;;1.00;;
76610;SDS011;65503;48.534;9.062;2023-08-06T05:33:05;4.78;;;1.00;;
76610;SDS011;65503;48.534;9.062;2023-08-06T05:35:32;2.80;;;0.80;;
76610;SDS011;65503;48.534;9.062;2023-08-06T05:37:59;1.88;;;0.85;;
76610;SDS011;65503;48.534;9.062;2023-08-06T05:40:26;2.40;;;0.80;;
76610;SDS011;65503;48.534;9.062;2023-08-06T05:42:55;2.60;;;0.95;;
76610;SDS011;65503;48.534;9.062;2023-08-06T05:45:22;0.77;;;0.60;;
76610;SDS011;65503;48.534;9.062;2023-08-06T05:47:48;2.70;;;0.85;;
76610;SDS011;65503;48.534;9.062;2023-08-06T05:50:15;5.18;;;0.88;;
76610;SDS011;65503;48.534;9.062;2023-08-06T05:52:43;2.33;;;0.80;;
76610;SDS011;65503;48.534;9.062;2023-08-06T05:55:10;3.67;;;0.85;;
76610;SDS011;65503;48.534;9.062;2023-08-06T05:57:36;1.35;;;0.70;;
76610;SDS011;65503;48.534;9.062;2023-08-06T06:00:03;2.22;;;0.73;;
76610;SDS011;65503;48.534;9.062;2023-08-06T06:02:32;1.40;;;0.70;;
76610;SDS011;65503;48.534;9.062;2023-08-06T06:04:58;2.85;;;1.27;;
76610;SDS011;65503;48.534;9.062;2023-08-06T06:07:25;2.10;;;0.70;;
76610;SDS011;65503;48.534;9.062;2023-08-06T06:09:52;2.97;;;0.90;;
76610;SDS011;65503;48.534;9.062;2023-08-06T06:12:18;6.55;;;1.08;;
76610;SDS011;65503;48.534;9.062;2023-08-06T06:14:45;2.78;;;1.17;;
76610;SDS011;65503;48.534;9.062;2023-08-06T06:17:11;1.35;;;0.70;;
76610;SDS011;65503;48.534;9.062;2023-08-06T06:19:38;2.53;;;0.77;;
76610;SDS011;65503;48.534;9.062;2023-08-06T06:22:04;3.38;;;1.13;;
76610;SDS011;65503;48.534;9.062;2023-08-06T06:24:31;2.53;;;0.90;;
76610;SDS011;65503;48.534;9.062;2023-08-06T06:26:58;2.45;;;0.90;;
76610;SDS011;65503;48.534;9.062;2023-08-06T06:29:25;1.63;;;0.70;;
76610;SDS011;65503;48.534;9.062;2023-08-06T06:31:52;3.72;;;1.00;;
76610;SDS011;65503;48.534;9.062;2023-08-06T06:34:18;2.20;;;0.85;;
76610;SDS011;65503;48.534;9.062;2023-08-06T06:36:45;4.65;;;1.20;;
76610;SDS011;65503;48.534;9.062;2023-08-06T06:39:12;15.68;;;6.82;;
76610;SDS011;65503;48.534;9.062;2023-08-06T06:41:38;4.93;;;2.00;;
76610;SDS011;65503;48.534;9.062;2023-08-06T06:44:05;2.78;;;0.82;;
76610;SDS011;65503;48.534;9.062;2023-08-06T06:46:32;1.83;;;0.75;;
76610;SDS011;65503;48.534;9.062;2023-08-06T06:48:58;1.02;;;0.75;;
76610;SDS011;65503;48.534;9.062;2023-08-06T06:51:25;1.63;;;0.82;;
76610;SDS011;65503;48.534;9.062;2023-08-06T06:53:51;0.77;;;0.60;;
76610;SDS011;65503;48.534;9.062;2023-08-06T06:56:18;0.75;;;0.68;;
76610;SDS011;65503;48.534;9.062;2023-08-06T06:58:44;2.42;;;0.88;;
76610;SDS011;65503;48.534;9.062;2023-08-06T07:01:11;2.33;;;0.70;;
76610;SDS011;65503;48.534;9.062;2023-08-06T07:03:38;0.68;;;0.45;;
76610;SDS011;65503;48.534;9.062;2023-08-06T07:06:05;3.15;;;0.60;;
76610;SDS011;65503;48.534;9.062;2023-08-06T07:08:32;2.80;;;0.90;;
76610;SDS011;65503;48.534;9.062;2023-08-06T07:11:03;1.60;;;0.50;;
76610;SDS011;65503;48.534;9.062;2023-08-06T07:13:30;2.90;;;0.70;;
76610;SDS011;65503;48.534;9.062;2023-08-06T07:15:56;2.22;;;0.50;;
76610;SDS011;65503;48.534;9.062;2023-08-06T07:18:23;2.53;;;0.65;;
76610;SDS011;65503;48.534;9.062;2023-08-06T07:20:51;0.70;;;0.43;;
76610;SDS011;65503;48.534;9.062;2023-08-06T07:23:22;1.30;;;0.50;;
76610;SDS011;65503;48.534;9.062;2023-08-06T07:25:50;0.82;;;0.60;;
76610;SDS011;65503;48.534;9.062;2023-08-06T07:28:17;2.90;;;0.60;;
76610;SDS011;65503;48.534;9.062;2023-08-06T07:30:44;0.85;;;0.30;;
76610;SDS011;65503;48.534;9.062;2023-08-06T07:33:12;0.35;;;0.35;;
76610;SDS011;65503;48.534;9.062;2023-08-06T07:35:38;1.33;;;0.60;;
76610;SDS011;65503;48.534;9.062;2023-08-06T07:38:05;0.52;;;0.45;;
76610;SDS011;65503;48.534;9.062;2023-08-06T07:40:32;0.90;;;0.60;;
76610;SDS011;65503;48.534;9.062;2023-08-06T07:42:58;0.55;;;0.40;;
76610;SDS011;65503;48.534;9.062;2023-08-06T07:45:25;0.57;;;0.40;;
76610;SDS011;65503;48.534;9.062;2023-08-06T07:47:53;1.27;;;0.32;;
76610;SDS011;65503;48.534;9.062;2023-08-06T07:50:20;0.63;;;0.40;;
76610;SDS011;65503;48.534;9.062;2023-08-06T07:52:46;1.05;;;0.40;;
76610;SDS011;65503;48.534;9.062;2023-08-06T07:55:13;0.70;;;0.30;;
76610;SDS011;65503;48.534;9.062;2023-08-06T07:57:40;0.20;;;0.20;;
76610;SDS011;65503;48.534;9.062;2023-08-06T08:00:07;0.35;;;0.35;;
76610;SDS011;65503;48.534;9.062;2023-08-06T08:02:35;0.30;;;0.20;;
76610;SDS011;65503;48.534;9.062;2023-08-06T08:05:02;0.15;;;0.15;;
76610;SDS011;65503;48.534;9.062;2023-08-06T08:07:28;0.20;;;0.20;;
76610;SDS011;65503;48.534;9.062;2023-08-06T08:09:56;0.68;;;0.30;;
76610;SDS011;65503;48.534;9.062;2023-08-06T08:12:23;0.40;;;0.22;;
76610;SDS011;65503;48.534;9.062;2023-08-06T08:14:49;0.32;;;0.30;;
76610;SDS011;65503;48.534;9.062;2023-08-06T08:17:16;0.65;;;0.20;;
76610;SDS011;65503;48.534;9.062;2023-08-06T08:19:43;0.85;;;0.32;;
76610;SDS011;65503;48.534;9.062;2023-08-06T08:22:09;0.90;;;0.30;;
76610;SDS011;65503;48.534;9.062;2023-08-06T08:24:36;0.55;;;0.20;;
76610;SDS011;65503;48.534;9.062;2023-08-06T08:27:03;1.70;;;0.50;;
76610;SDS011;65503;48.534;9.062;2023-08-06T08:29:30;0.32;;;0.30;;
76610;SDS011;65503;48.534;9.062;2023-08-06T08:31:56;0.43;;;0.22;;
76610;SDS011;65503;48.534;9.062;2023-08-06T08:34:23;0.22;;;0.20;;
76610;SDS011;65503;48.534;9.062;2023-08-06T08:36:50;0.08;;;0.08;;
76610;SDS011;65503;48.534;9.062;2023-08-06T08:39:16;0.10;;;0.10;;
76610;SDS011;65503;48.534;9.062;2023-08-06T08:41:43;0.80;;;0.10;;
76610;SDS011;65503;48.534;9.062;2023-08-06T08:44:10;0.55;;;0.20;;
76610;SDS011;65503;48.534;9.062;2023-08-06T08:46:40;0.30;;;0.30;;
76610;SDS011;65503;48.534;9.062;2023-08-06T08:49:07;1.75;;;0.40;;
76610;SDS011;65503;48.534;9.062;2023-08-06T08:51:34;0.20;;;0.20;;
76610;SDS011;65503;48.534;9.062;2023-08-06T08:54:04;0.17;;;0.15;;
76610;SDS011;65503;48.534;9.062;2023-08-06T08:56:32;0.20;;;0.17;;
76610;SDS011;65503;48.534;9.062;2023-08-06T08:58:58;1.02;;;0.28;;
76610;SDS011;65503;48.534;9.062;2023-08-06T09:01:26;0.22;;;0.15;;
76610;SDS011;65503;48.534;9.062;2023-08-06T09:03:54;2.15;;;0.25;;
76610;SDS011;65503;48.534;9.062;2023-08-06T09:06:23;1.30;;;0.50;;
76610;SDS011;65503;48.534;9.062;2023-08-06T09:09:01;0.25;;;0.25;;
76610;SDS011;65503;48.534;9.062;2023-08-06T09:11:36;1.48;;;0.32;;
76610;SDS011;65503;48.534;9.062;2023-08-06T09:14:08;0.08;;;0.08;;
76610;SDS011;65503;48.534;9.062;2023-08-06T09:16:35;0.68;;;0.20;;
76610;SDS011;65503;48.534;9.062;2023-08-06T09:19:11;0.10;;;0.10;;
76610;SDS011;65503;48.534;9.062;2023-08-06T09:21:39;0.90;;;0.20;;
76610;SDS011;65503;48.534;9.062;2023-08-06T09:24:07;0.10;;;0.10;;
76610;SDS011;65503;48.534;9.062;2023-08-06T09:26:37;1.95;;;0.17;;
76610;SDS011;65503;48.534;9.062;2023-08-06T09:29:05;2.30;;;0.25;;
76610;SDS011;65503;48.534;9.062;2023-08-06T09:31:44;0.17;;;0.17;;
76610;SDS011;65503;48.534;9.062;2023-08-06T09:36:43;0.10;;;0.10;;
76610;SDS011;65503;48.534;9.062;2023-08-06T09:39:13;0.75;;;0.30;;
76610;SDS011;65503;48.534;9.062;2023-08-06T09:41:41;0.30;;;0.10;;
76610;SDS011;65503;48.534;9.062;2023-08-06T09:46:42;0.25;;;0.25;;
76610;SDS011;65503;48.534;9.062;2023-08-06T09:49:09;0.22;;;0.22;;
76610;SDS011;65503;48.534;9.062;2023-08-06T09:51:36;0.30;;;0.30;;
76610;SDS011;65503;48.534;9.062;2023-08-06T09:54:06;0.30;;;0.30;;
76610;SDS011;65503;48.534;9.062;2023-08-06T09:56:50;0.45;;;0.30;;
76610;SDS011;65503;48.534;9.062;2023-08-06T09:59:17;0.38;;;0.38;;
76610;SDS011;65503;48.534;9.062;2023-08-06T10:01:45;0.25;;;0.20;;
76610;SDS011;65503;48.534;9.062;2023-08-06T10:04:13;0.35;;;0.20;;
76610;SDS011;65503;48.534;9.062;2023-08-06T10:06:50;0.40;;;0.20;;
76610;SDS011;65503;48.534;9.062;2023-08-06T10:09:17;1.95;;;0.60;;
76610;SDS011;65503;48.534;9.062;2023-08-06T10:11:47;0.75;;;0.40;;
76610;SDS011;65503;48.534;9.062;2023-08-06T10:14:19;0.75;;;0.30;;
76610;SDS011;65503;48.534;9.062;2023-08-06T10:16:49;0.38;;;0.30;;
76610;SDS011;65503;48.534;9.062;2023-08-06T10:19:17;0.68;;;0.38;;
76610;SDS011;65503;48.534;9.062;2023-08-06T10:22:18;0.20;;;0.20;;
76610;SDS011;65503;48.534;9.062;2023-08-06T10:24:54;0.20;;;0.20;;
76610;SDS011;65503;48.534;9.062;2023-08-06T10:30:20;0.30;;;0.30;;
76610;SDS011;65503;48.534;9.062;2023-08-06T10:32:52;0.35;;;0.20;;
76610;SDS011;65503;48.534;9.062;2023-08-06T10:35:27;0.47;;;0.22;;
76610;SDS011;65503;48.534;9.062;2023-08-06T10:40:32;0.30;;;0.30;;
76610;SDS011;65503;48.534;9.062;2023-08-06T10:43:03;0.10;;;0.10;;
76610;SDS011;65503;48.534;9.062;2023-08-06T10:45:33;0.70;;;0.40;;
76610;SDS011;65503;48.534;9.062;2023-08-06T10:48:01;2.75;;;0.40;;
76610;SDS011;65503;48.534;9.062;2023-08-06T10:50:28;0.50;;;0.28;;
76610;SDS011;65503;48.534;9.062;2023-08-06T10:52:55;1.98;;;0.30;;
76610;SDS011;65503;48.534;9.062;2023-08-06T10:55:22;0.57;;;0.30;;
76610;SDS011;65503;48.534;9.062;2023-08-06T10:57:50;0.40;;;0.40;;
76610;SDS011;65503;48.534;9.062;2023-08-06T11:00:17;2.60;;;0.50;;
76610;SDS011;65503;48.534;9.062;2023-08-06T11:02:44;2.55;;;0.63;;
76610;SDS011;65503;48.534;9.062;2023-08-06T11:05:13;1.02;;;0.50;;
76610;SDS011;65503;48.534;9.062;2023-08-06T11:07:40;1.10;;;0.50;;
76610;SDS011;65503;48.534;9.062;2023-08-06T11:10:07;2.53;;;0.63;;
76610;SDS011;65503;48.534;9.062;2023-08-06T11:12:35;0.30;;;0.30;;
76610;SDS011;65503;48.534;9.062;2023-08-06T11:15:02;0.98;;;0.45;;
76610;SDS011;65503;48.534;9.062;2023-08-06T11:17:31;1.35;;;0.40;;
76610;SDS011;65503;48.534;9.062;2023-08-06T11:19:59;0.98;;;0.60;;
76610;SDS011;65503;48.534;9.062;2023-08-06T11:22:26;4.82;;;0.40;;
76610;SDS011;65503;48.534;9.062;2023-08-06T11:24:53;0.85;;;0.30;;
76610;SDS011;65503;48.534;9.062;2023-08-06T11:27:20;2.92;;;0.30;;
76610;SDS011;65503;48.534;9.062;2023-08-06T11:29:47;0.75;;;0.40;;
76610;SDS011;65503;48.534;9.062;2023-08-06T11:32:14;0.98;;;0.43;;
76610;SDS011;65503;48.534;9.062;2023-08-06T11:34:43;2.40;;;0.22;;
76610;SDS011;65503;48.534;9.062;2023-08-06T11:37:10;2.25;;;0.40;;
76610;SDS011;65503;48.534;9.062;2023-08-06T11:39:38;0.50;;;0.17;;
76610;SDS011;65503;48.534;9.062;2023-08-06T11:42:08;0.30;;;0.30;;
76610;SDS011;65503;48.534;9.062;2023-08-06T11:44:35;0.47;;;0.20;;
76610;SDS011;65503;48.534;9.062;2023-08-06T11:47:03;0.30;;;0.30;;
76610;SDS011;65503;48.534;9.062;2023-08-06T11:49:45;0.45;;;0.30;;
76610;SDS011;65503;48.534;9.062;2023-08-06T11:52:17;0.13;;;0.13;;
76610;SDS011;65503;48.534;9.062;2023-08-06T11:54:46;2.55;;;0.50;;
76610;SDS011;65503;48.534;9.062;2023-08-06T11:57:15;0.38;;;0.38;;
76610;SDS011;65503;48.534;9.062;2023-08-06T11:59:43;0.60;;;0.50;;
76610;SDS011;65503;48.534;9.062;2023-08-06T12:02:10;0.30;;;0.30;;
76610;SDS011;65503;48.534;9.062;2023-08-06T12:07:42;0.30;;;0.30;;
76610;SDS011;65503;48.534;9.062;2023-08-06T12:10:10;0.45;;;0.40;;
76610;SDS011;65503;48.534;9.062;2023-08-06T12:12:38;1.02;;;0.70;;
76610;SDS011;65503;48.534;9.062;2023-08-06T12:15:06;2.55;;;0.77;;
76610;SDS011;65503;48.534;9.062;2023-08-06T12:17:33;0.80;;;0.60;;
76610;SDS011;65503;48.534;9.062;2023-08-06T12:20:00;1.20;;;0.93;;
76610;SDS011;65503;48.534;9.062;2023-08-06T12:22:27;1.20;;;0.80;;
76610;SDS011;65503;48.534;9.062;2023-08-06T12:24:54;1.73;;;0.90;;
76610;SDS011;65503;48.534;9.062;2023-08-06T12:27:21;2.55;;;0.98;;
76610;SDS011;65503;48.534;9.062;2023-08-06T12:29:48;3.80;;;0.93;;
76610;SDS011;65503;48.534;9.062;2023-08-06T12:32:14;2.60;;;1.10;;
76610;SDS011;65503;48.534;9.062;2023-08-06T12:34:42;3.38;;;1.10;;
76610;SDS011;65503;48.534;9.062;2023-08-06T12:37:18;3.70;;;1.13;;
76610;SDS011;65503;48.534;9.062;2023-08-06T12:39:45;2.05;;;0.80;;
76610;SDS011;65503;48.534;9.062;2023-08-06T12:42:12;2.60;;;1.00;;
76610;SDS011;65503;48.534;9.062;2023-08-06T12:44:38;1.27;;;0.90;;
76610;SDS011;65503;48.534;9.062;2023-08-06T12:47:06;1.48;;;0.98;;
76610;SDS011;65503;48.534;9.062;2023-08-06T12:49:33;1.05;;;0.80;;
76610;SDS011;65503;48.534;9.062;2023-08-06T12:52:00;2.70;;;0.90;;
76610;SDS011;65503;48.534;9.062;2023-08-06T12:54:27;1.23;;;0.73;;
76610;SDS011;65503;48.534;9.062;2023-08-06T12:56:54;1.15;;;0.80;;
76610;SDS011;65503;48.534;9.062;2023-08-06T12:59:20;1.65;;;1.00;;
76610;SDS011;65503;48.534;9.062;2023-08-06T13:01:47;3.13;;;1.00;;
76610;SDS011;65503;48.534;9.062;2023-08-06T13:04:14;1.20;;;0.90;;
76610;SDS011;65503;48.534;9.062;2023-08-06T13:06:48;1.58;;;0.95;;
76610;SDS011;65503;48.534;9.062;2023-08-06T13:09:14;1.50;;;0.80;;
76610;SDS011;65503;48.534;9.062;2023-08-06T13:11:41;2.33;;;1.02;;
76610;SDS011;65503;48.534;9.062;2023-08-06T13:14:09;1.88;;;0.90;;
76610;SDS011;65503;48.534;9.062;2023-08-06T13:16:37;2.13;;;0.80;;
76610;SDS011;65503;48.534;9.062;2023-08-06T13:19:05;1.27;;;0.80;;
76610;SDS011;65503;48.534;9.062;2023-08-06T13:24:01;1.00;;;0.60;;
76610;SDS011;65503;48.534;9.062;2023-08-06T13:26:28;0.60;;;0.60;;
76610;SDS011;65503;48.534;9.062;2023-08-06T13:31:26;0.40;;;0.40;;
76610;SDS011;65503;48.534;9.062;2023-08-06T13:33:54;1.10;;;0.80;;
76610;SDS011;65503;48.534;9.062;2023-08-06T13:36:22;1.02;;;0.77;;
76610;SDS011;65503;48.534;9.062;2023-08-06T13:38:49;1.00;;;0.82;;
76610;SDS011;65503;48.534;9.062;2023-08-06T13:41:16;1.17;;;0.70;;
76610;SDS011;65503;48.534;9.062;2023-08-06T13:43:43;0.95;;;0.60;;
76610;SDS011;65503;48.534;9.062;2023-08-06T13:48:41;0.80;;;0.70;;
76610;SDS011;65503;48.534;9.062;2023-08-06T13:51:08;1.63;;;0.50;;
76610;SDS011;65503;48.534;9.062;2023-08-06T13:53:34;3.92;;;0.80;;
76610;SDS011;65503;48.534;9.062;2023-08-06T13:56:01;1.17;;;0.70;;
76610;SDS011;65503;48.534;9.062;2023-08-06T13:58:27;1.40;;;0.60;;
76610;SDS011;65503;48.534;9.062;2023-08-06T14:00:54;0.50;;;0.50;;
76610;SDS011;65503;48.534;9.062;2023-08-06T14:03:21;3.35;;;0.80;;
76610;SDS011;65503;48.534;9.062;2023-08-06T14:05:48;0.82;;;0.75;;
76610;SDS011;65503;48.534;9.062;2023-08-06T14:08:15;0.85;;;0.73;;
76610;SDS011;65503;48.534;9.062;2023-08-06T14:10:44;0.68;;;0.60;;
76610;SDS011;65503;48.534;9.062;2023-08-06T14:13:11;0.55;;;0.55;;
76610;SDS011;65503;48.534;9.062;2023-08-06T14:15:38;0.75;;;0.55;;
76610;SDS011;65503;48.534;9.062;2023-08-06T14:18:08;1.85;;;0.70;;
76610;SDS011;65503;48.534;9.062;2023-08-06T14:20:34;0.90;;;0.40;;
76610;SDS011;65503;48.534;9.062;2023-08-06T14:23:01;0.98;;;0.60;;
76610;SDS011;65503;48.534;9.062;2023-08-06T14:25:28;0.52;;;0.40;;
76610;SDS011;65503;48.534;9.062;2023-08-06T14:27:55;0.50;;;0.50;;
76610;SDS011;65503;48.534;9.062;2023-08-06T14:30:21;2.85;;;0.85;;
76610;SDS011;65503;48.534;9.062;2023-08-06T14:32:48;1.65;;;0.70;;
76610;SDS011;65503;48.534;9.062;2023-08-06T14:35:14;2.00;;;0.80;;
76610;SDS011;65503;48.534;9.062;2023-08-06T14:37:41;1.17;;;0.80;;
76610;SDS011;65503;48.534;9.062;2023-08-06T14:40:08;1.10;;;0.70;;
76610;SDS011;65503;48.534;9.062;2023-08-06T14:42:35;0.98;;;0.80;;
76610;SDS011;65503;48.534;9.062;2023-08-06T14:45:02;0.75;;;0.60;;
76610;SDS011;65503;48.534;9.062;2023-08-06T14:47:29;0.68;;;0.50;;
76610;SDS011;65503;48.534;9.062;2023-08-06T14:49:55;1.48;;;0.80;;
76610;SDS011;65503;48.534;9.062;2023-08-06T14:52:22;0.57;;;0.57;;
76610;SDS011;65503;48.534;9.062;2023-08-06T14:54:48;0.75;;;0.60;;
76610;SDS011;65503;48.534;9.062;2023-08-06T14:57:18;1.23;;;0.50;;
76610;SDS011;65503;48.534;9.062;2023-08-06T14:59:44;1.17;;;0.57;;
76610;SDS011;65503;48.534;9.062;2023-08-06T15:02:11;0.55;;;0.50;;
76610;SDS011;65503;48.534;9.062;2023-08-06T15:04:37;0.45;;;0.45;;
76610;SDS011;65503;48.534;9.062;2023-08-06T15:07:04;1.60;;;0.60;;
76610;SDS011;65503;48.534;9.062;2023-08-06T15:09:30;1.20;;;0.45;;
76610;SDS011;65503;48.534;9.062;2023-08-06T15:12:06;0.47;;;0.47;;